Time;durP1;ratioP1;P1;durP2;ratioP2;P2;SDS_P1;SDS_P2;PMS_P1;PMS_P2;Temp;Humidity;BMP_temperature;BMP_pressure;BME280_temperature;BME280_humidity;BME280_pressure;Samples;Min_cycle;Max_cycle;Signal;HPM_P1;HPM_P2
2021/05/05 00:06:20;;;;;;;1.40;1.10;;;8.10;99.90;;;;;;5052224;28;20396;-69
2021/05/05 00:08:47;;;;;;;1.97;1.40;;;8.10;99.90;;;;;;5044321;28;20473;-69
2021/05/05 00:11:14;;;;;;;2.80;1.60;;;8.10;99.90;;;;;;5048995;28;20510;-69
2021/05/05 00:13:40;;;;;;;1.63;1.10;;;8.10;99.90;;;;;;5053268;28;20469;-69
2021/05/05 00:16:07;;;;;;;2.73;1.30;;;8.20;99.90;;;;;;5037034;28;20549;-70
2021/05/05 00:18:35;;;;;;;4.33;1.60;;;8.30;99.90;;;;;;5056214;28;20449;-70
2021/05/05 00:21:03;;;;;;;4.80;1.63;;;8.30;99.90;;;;;;5056286;28;20477;-70
2021/05/05 00:23:30;;;;;;;7.30;2.50;;;8.20;99.90;;;;;;5060003;28;20487;-70
2021/05/05 00:25:56;;;;;;;1.50;1.37;;;8.20;99.90;;;;;;5049050;28;20546;-70
2021/05/05 00:28:23;;;;;;;1.30;1.10;;;8.30;99.90;;;;;;5051098;28;20418;-70
2021/05/05 00:30:50;;;;;;;2.13;1.93;;;8.30;99.90;;;;;;5057403;28;20506;-69
2021/05/05 00:33:16;;;;;;;2.70;1.33;;;8.30;99.90;;;;;;5053995;28;21065;-69
2021/05/05 00:35:43;;;;;;;3.20;1.37;;;8.20;99.90;;;;;;5054014;28;20445;-70
2021/05/05 00:38:10;;;;;;;2.30;1.20;;;8.20;99.90;;;;;;5050285;28;20874;-69
2021/05/05 00:40:37;;;;;;;4.23;1.60;;;8.10;99.90;;;;;;5050367;28;21285;-69
2021/05/05 00:43:04;;;;;;;3.20;1.47;;;8.10;99.90;;;;;;5050529;28;20589;-69
2021/05/05 00:45:31;;;;;;;3.13;2.00;;;8.20;99.90;;;;;;5047245;28;20550;-69
2021/05/05 00:47:58;;;;;;;1.63;1.30;;;8.30;99.90;;;;;;5054378;28;20767;-69
2021/05/05 00:50:24;;;;;;;1.20;1.10;;;8.40;99.90;;;;;;5050302;28;20467;-69
2021/05/05 00:52:51;;;;;;;2.70;1.20;;;8.30;99.90;;;;;;5055333;28;20516;-69
2021/05/05 00:55:18;;;;;;;2.30;1.60;;;8.30;99.90;;;;;;5053681;28;20535;-70
2021/05/05 00:57:45;;;;;;;4.40;1.63;;;8.30;99.90;;;;;;5051885;28;20418;-68
2021/05/05 01:00:13;;;;;;;1.97;1.10;;;8.40;99.90;;;;;;5048873;28;20533;-69
2021/05/05 01:02:40;;;;;;;1.63;1.20;;;8.50;99.90;;;;;;5051046;28;20557;-69
2021/05/05 01:05:08;;;;;;;1.50;1.23;;;8.50;99.90;;;;;;5049873;28;20462;-69
2021/05/05 01:07:35;;;;;;;3.00;1.70;;;8.50;99.90;;;;;;5053794;28;20979;-70
2021/05/05 01:10:05;;;;;;;2.63;2.10;;;8.40;99.90;;;;;;5047948;28;20545;-70
2021/05/05 01:12:32;;;;;;;1.10;0.87;;;8.40;99.90;;;;;;5051656;28;20483;-69
2021/05/05 01:14:59;;;;;;;1.33;1.03;;;8.40;99.90;;;;;;5051575;28;20459;-70
2021/05/05 01:17:27;;;;;;;1.63;1.03;;;8.30;99.90;;;;;;5054161;28;20610;-70
2021/05/05 01:19:54;;;;;;;2.67;1.60;;;8.30;99.90;;;;;;5049929;28;20475;-69
2021/05/05 01:22:21;;;;;;;2.10;1.90;;;8.20;99.90;;;;;;5049924;28;20936;-70
2021/05/05 01:24:48;;;;;;;2.57;2.30;;;8.20;99.90;;;;;;5048782;28;20486;-69
2021/05/05 01:27:15;;;;;;;3.90;2.53;;;8.30;99.90;;;;;;5053630;28;20968;-70
2021/05/05 01:29:42;;;;;;;9.83;2.17;;;8.10;99.90;;;;;;5052264;28;21026;-70
2021/05/05 01:32:08;;;;;;;4.23;1.40;;;8.00;99.90;;;;;;5051709;28;20928;-70
2021/05/05 01:34:35;;;;;;;1.63;1.33;;;8.10;99.90;;;;;;5050664;28;20479;-69
2021/05/05 01:37:02;;;;;;;1.90;1.40;;;8.10;99.90;;;;;;5051155;28;20422;-70
2021/05/05 01:39:30;;;;;;;1.80;1.60;;;8.00;99.90;;;;;;5046123;28;20572;-70
2021/05/05 01:41:58;;;;;;;1.67;1.30;;;8.10;99.90;;;;;;5046022;28;20430;-70
2021/05/05 01:44:31;;;;;;;1.77;1.37;;;8.10;99.90;;;;;;5046224;28;20559;-69
2021/05/05 01:46:58;;;;;;;1.00;0.87;;;8.10;99.90;;;;;;5056095;28;20414;-69
2021/05/05 01:49:26;;;;;;;1.10;0.80;;;8.00;99.90;;;;;;5051877;28;20419;-70
2021/05/05 01:51:55;;;;;;;8.73;2.53;;;8.00;99.90;;;;;;5048890;28;20425;-69
2021/05/05 01:54:23;;;;;;;2.60;1.40;;;8.00;99.90;;;;;;5049837;28;20463;-69
2021/05/05 01:56:50;;;;;;;1.20;1.10;;;8.00;99.90;;;;;;5052271;28;20448;-70
2021/05/05 01:59:17;;;;;;;1.73;1.10;;;7.90;99.90;;;;;;5050945;28;20976;-70
2021/05/05 02:01:44;;;;;;;1.63;1.47;;;8.00;99.90;;;;;;5047390;28;20498;-70
2021/05/05 02:04:10;;;;;;;3.50;1.60;;;8.20;99.90;;;;;;5050642;28;20482;-70
2021/05/05 02:06:37;;;;;;;2.43;1.23;;;8.10;99.90;;;;;;5048310;28;20432;-70
2021/05/05 02:09:04;;;;;;;4.23;1.60;;;8.10;99.90;;;;;;5052015;28;20466;-70
2021/05/05 02:11:32;;;;;;;1.47;1.13;;;8.10;99.90;;;;;;5053906;28;20438;-71
2021/05/05 02:13:59;;;;;;;3.57;1.20;;;8.10;99.90;;;;;;5055931;28;20441;-70
2021/05/05 02:16:25;;;;;;;3.40;1.40;;;8.20;99.90;;;;;;5048062;28;20510;-70
2021/05/05 02:18:52;;;;;;;1.33;1.20;;;8.20;99.90;;;;;;5048469;28;20422;-69
2021/05/05 02:21:19;;;;;;;1.23;0.93;;;8.10;99.90;;;;;;5047641;28;20491;-70
2021/05/05 02:23:45;;;;;;;1.30;1.20;;;8.00;99.90;;;;;;5050860;28;20463;-69
2021/05/05 02:26:12;;;;;;;2.03;1.57;;;7.90;99.90;;;;;;5052580;28;20446;-69
2021/05/05 02:28:39;;;;;;;3.10;1.47;;;7.90;99.90;;;;;;5060853;28;20414;-71
2021/05/05 02:31:06;;;;;;;1.40;1.27;;;8.00;99.90;;;;;;5052350;28;20541;-71
2021/05/05 02:33:33;;;;;;;3.23;2.50;;;8.10;99.90;;;;;;5054310;28;20520;-71
2021/05/05 02:36:00;;;;;;;2.27;1.70;;;8.10;99.90;;;;;;5050020;28;20425;-70
2021/05/05 02:38:26;;;;;;;3.40;2.43;;;8.10;99.90;;;;;;5056678;28;20664;-70
2021/05/05 02:40:53;;;;;;;4.53;2.23;;;8.00;99.90;;;;;;5053863;28;20472;-69
2021/05/05 02:43:19;;;;;;;2.63;2.30;;;8.00;99.90;;;;;;5049754;28;20506;-69
2021/05/05 02:45:46;;;;;;;2.80;2.60;;;7.90;99.90;;;;;;5051542;28;20536;-69
2021/05/05 02:48:13;;;;;;;1.53;1.43;;;7.90;99.90;;;;;;5049143;28;20585;-69
2021/05/05 02:50:40;;;;;;;2.47;1.13;;;7.90;99.90;;;;;;5049962;28;20921;-70
2021/05/05 02:53:07;;;;;;;2.33;1.87;;;7.90;99.90;;;;;;5051843;28;20998;-69
2021/05/05 02:55:33;;;;;;;1.73;1.17;;;7.90;99.90;;;;;;5048207;28;20446;-69
2021/05/05 02:58:01;;;;;;;2.93;1.80;;;7.80;99.90;;;;;;5057738;28;20447;-69
2021/05/05 03:00:27;;;;;;;2.80;2.30;;;7.80;99.90;;;;;;5047684;28;20581;-70
2021/05/05 03:02:54;;;;;;;5.77;3.43;;;7.80;99.90;;;;;;5050716;28;20820;-70
2021/05/05 03:05:21;;;;;;;2.30;1.93;;;7.70;99.90;;;;;;5051686;28;20446;-70
2021/05/05 03:07:48;;;;;;;2.83;2.60;;;7.70;99.90;;;;;;5050075;28;20434;-71
2021/05/05 03:10:15;;;;;;;5.17;2.90;;;7.80;99.90;;;;;;5040995;28;20498;-70
2021/05/05 03:12:42;;;;;;;2.23;2.00;;;7.80;99.90;;;;;;5057283;28;20485;-70
2021/05/05 03:15:09;;;;;;;3.17;2.30;;;7.80;99.90;;;;;;5048129;28;20980;-71
2021/05/05 03:17:37;;;;;;;2.57;2.37;;;7.70;99.90;;;;;;5053798;28;20895;-70
2021/05/05 03:20:05;;;;;;;2.63;1.83;;;7.70;99.90;;;;;;5048050;28;21040;-70
2021/05/05 03:22:33;;;;;;;2.00;1.40;;;7.80;99.90;;;;;;5053697;28;20489;-70
2021/05/05 03:25:00;;;;;;;2.03;1.57;;;7.80;99.90;;;;;;5053718;28;20860;-70
2021/05/05 03:27:27;;;;;;;2.00;1.90;;;7.70;99.90;;;;;;5061147;28;20961;-70
2021/05/05 03:29:53;;;;;;;3.27;2.23;;;7.60;99.90;;;;;;5056201;28;20504;-70
2021/05/05 03:32:20;;;;;;;1.80;1.70;;;7.60;99.90;;;;;;5051267;28;20543;-70
2021/05/05 03:34:46;;;;;;;2.47;1.50;;;7.60;99.90;;;;;;5050554;28;20463;-70
2021/05/05 03:37:13;;;;;;;3.13;1.20;;;7.50;99.90;;;;;;5050994;28;20571;-68
2021/05/05 03:39:41;;;;;;;2.30;2.00;;;7.50;99.90;;;;;;5049333;28;20495;-70
2021/05/05 03:42:07;;;;;;;1.93;1.33;;;7.40;99.90;;;;;;5044667;28;21344;-69
2021/05/05 03:44:34;;;;;;;1.83;1.57;;;7.30;99.90;;;;;;5048418;28;20485;-70
2021/05/05 03:47:01;;;;;;;1.50;1.33;;;7.20;99.90;;;;;;5050927;28;20450;-69
2021/05/05 03:49:28;;;;;;;6.10;2.10;;;7.20;99.90;;;;;;5050359;28;20577;-69
2021/05/05 03:51:55;;;;;;;1.83;1.40;;;7.20;99.90;;;;;;5044610;28;20611;-69
2021/05/05 03:54:21;;;;;;;1.10;0.90;;;7.10;99.90;;;;;;5053548;28;22682;-68
2021/05/05 03:56:49;;;;;;;3.67;2.40;;;7.10;99.90;;;;;;5050857;28;20464;-69
2021/05/05 03:59:15;;;;;;;2.43;2.23;;;7.10;99.90;;;;;;5054620;28;20966;-70
2021/05/05 04:01:42;;;;;;;2.80;2.40;;;7.10;99.90;;;;;;5053352;28;20532;-70
2021/05/05 04:04:09;;;;;;;5.53;2.33;;;7.10;99.90;;;;;;5046815;28;20453;-70
2021/05/05 04:06:35;;;;;;;3.00;1.87;;;7.20;99.90;;;;;;5041445;28;21045;-70
2021/05/05 04:09:02;;;;;;;1.93;1.83;;;7.10;99.90;;;;;;5043764;28;20733;-69
2021/05/05 04:11:29;;;;;;;2.17;1.37;;;7.00;99.90;;;;;;5047674;28;20461;-69
2021/05/05 04:13:57;;;;;;;3.83;2.80;;;7.10;99.90;;;;;;5050241;28;21049;-70
2021/05/05 04:16:23;;;;;;;2.60;2.40;;;7.00;99.90;;;;;;5052009;28;20457;-69
2021/05/05 04:18:50;;;;;;;1.70;1.17;;;7.10;99.90;;;;;;5033227;28;20494;-70
2021/05/05 04:21:16;;;;;;;2.97;2.07;;;7.10;99.90;;;;;;5043818;28;20503;-69
2021/05/05 04:23:43;;;;;;;4.53;3.20;;;7.20;99.90;;;;;;5044475;28;20487;-70
2021/05/05 04:26:10;;;;;;;3.03;2.40;;;7.20;99.90;;;;;;5045345;28;20533;-70
2021/05/05 04:28:37;;;;;;;2.73;2.10;;;7.30;99.90;;;;;;5049280;28;20445;-68
2021/05/05 04:31:06;;;;;;;2.23;1.93;;;7.30;99.90;;;;;;5036118;28;20472;-69
2021/05/05 04:33:33;;;;;;;2.50;1.93;;;7.20;99.90;;;;;;5049642;28;20436;-69
2021/05/05 04:35:59;;;;;;;4.07;2.97;;;7.20;99.90;;;;;;5040345;28;20467;-70
2021/05/05 04:38:26;;;;;;;4.00;2.77;;;7.20;99.90;;;;;;5047570;28;20511;-69
2021/05/05 04:40:53;;;;;;;6.70;5.00;;;7.30;99.90;;;;;;5041611;28;20625;-70
2021/05/05 04:43:19;;;;;;;5.43;4.30;;;7.30;99.90;;;;;;5042204;28;20473;-70
2021/05/05 04:45:46;;;;;;;3.60;3.30;;;7.30;99.90;;;;;;5043908;28;20549;-70
2021/05/05 04:48:14;;;;;;;3.10;2.30;;;7.30;99.90;;;;;;5040819;28;20509;-69
2021/05/05 04:50:40;;;;;;;4.47;2.77;;;7.20;99.90;;;;;;5044380;28;20993;-68
2021/05/05 04:53:08;;;;;;;1.20;1.10;;;7.20;99.90;;;;;;5040375;28;20474;-68
2021/05/05 04:55:35;;;;;;;6.00;3.90;;;7.20;99.90;;;;;;5043771;28;20437;-69
2021/05/05 04:58:02;;;;;;;4.37;3.30;;;7.20;99.90;;;;;;5046201;28;20438;-71
2021/05/05 05:00:29;;;;;;;9.00;4.80;;;7.10;99.90;;;;;;5049355;28;20568;-69
2021/05/05 05:02:55;;;;;;;4.97;3.70;;;7.10;99.90;;;;;;5052334;28;20881;-69
2021/05/05 05:05:23;;;;;;;10.47;5.37;;;7.20;99.90;;;;;;5047573;28;20483;-70
2021/05/05 05:07:50;;;;;;;8.90;3.57;;;7.30;99.90;;;;;;5055718;28;20849;-70
2021/05/05 05:10:17;;;;;;;2.60;2.30;;;7.20;99.90;;;;;;5056646;28;20448;-70
2021/05/05 05:12:43;;;;;;;2.73;2.37;;;7.20;99.90;;;;;;5054876;28;20451;-70
2021/05/05 05:15:11;;;;;;;3.37;2.97;;;7.20;99.90;;;;;;5052921;28;22258;-70
2021/05/05 05:17:37;;;;;;;6.47;5.10;;;7.30;99.90;;;;;;5055995;28;20469;-70
2021/05/05 05:20:08;;;;;;;7.23;4.80;;;7.20;99.90;;;;;;5058468;28;21854;-72
2021/05/05 05:22:36;;;;;;;6.63;3.40;;;7.30;99.90;;;;;;5052690;28;20525;-70
2021/05/05 05:25:04;;;;;;;3.23;2.50;;;7.20;99.90;;;;;;5053371;28;20461;-70
2021/05/05 05:27:30;;;;;;;1.77;1.67;;;7.20;99.90;;;;;;5050453;28;20426;-69
2021/05/05 05:29:58;;;;;;;6.70;4.67;;;7.40;99.90;;;;;;5048714;28;20575;-69
2021/05/05 05:32:24;;;;;;;4.93;3.57;;;7.50;99.90;;;;;;5046157;28;20952;-70
2021/05/05 05:34:51;;;;;;;3.00;2.70;;;7.60;99.90;;;;;;5056709;28;20803;-69
2021/05/05 05:37:18;;;;;;;5.37;4.20;;;7.60;99.90;;;;;;5059720;28;20460;-69
2021/05/05 05:39:46;;;;;;;9.77;3.53;;;7.60;99.90;;;;;;5057207;28;20450;-70
2021/05/05 05:42:12;;;;;;;7.13;3.67;;;7.60;99.90;;;;;;5052139;28;20636;-69
2021/05/05 05:44:39;;;;;;;37.53;3.63;;;7.50;99.90;;;;;;5061781;28;20456;-70
2021/05/05 05:47:06;;;;;;;6.13;4.23;;;7.50;99.90;;;;;;5052208;28;20433;-70
2021/05/05 05:49:32;;;;;;;7.17;5.73;;;7.40;99.90;;;;;;5050521;28;20583;-70
2021/05/05 05:52:00;;;;;;;13.00;5.40;;;7.50;99.90;;;;;;5046516;28;20888;-71
2021/05/05 05:54:26;;;;;;;8.33;6.80;;;7.60;99.90;;;;;;5048988;28;20645;-70
2021/05/05 05:56:54;;;;;;;6.23;4.57;;;7.60;99.90;;;;;;5052366;28;20458;-71
2021/05/05 05:59:24;;;;;;;4.83;4.07;;;7.50;99.90;;;;;;5058780;28;20458;-72
2021/05/05 06:01:50;;;;;;;9.20;5.47;;;7.50;99.90;;;;;;5053087;28;20478;-70
2021/05/05 06:04:18;;;;;;;4.57;4.17;;;7.50;99.90;;;;;;5048585;28;21295;-70
2021/05/05 06:06:45;;;;;;;4.23;3.77;;;7.30;99.90;;;;;;5050781;28;20801;-69
2021/05/05 06:09:11;;;;;;;6.23;3.93;;;7.10;99.90;;;;;;5056124;28;20970;-69
2021/05/05 06:11:38;;;;;;;7.07;4.97;;;6.90;99.90;;;;;;5054085;28;20825;-70
2021/05/05 06:14:06;;;;;;;5.13;3.20;;;6.80;99.90;;;;;;5052305;28;20446;-70
2021/05/05 06:16:33;;;;;;;6.13;2.73;;;6.80;99.90;;;;;;5050358;28;20492;-71
2021/05/05 06:18:59;;;;;;;3.60;3.30;;;6.80;99.90;;;;;;5051293;28;20519;-71
2021/05/05 06:21:26;;;;;;;4.73;3.13;;;6.70;99.90;;;;;;5056238;28;20478;-70
2021/05/05 06:23:53;;;;;;;2.50;1.60;;;6.60;99.90;;;;;;5052866;28;20463;-70
2021/05/05 06:26:20;;;;;;;2.20;2.00;;;6.50;99.90;;;;;;5054829;28;20519;-69
2021/05/05 06:28:47;;;;;;;2.37;2.17;;;6.40;99.90;;;;;;5048697;28;20475;-70
2021/05/05 06:31:15;;;;;;;2.40;2.03;;;6.40;99.90;;;;;;5036196;28;20474;-71
2021/05/05 06:33:41;;;;;;;4.23;1.87;;;6.50;99.90;;;;;;5050986;28;20823;-70
2021/05/05 06:36:08;;;;;;;2.80;2.53;;;6.60;99.90;;;;;;5059087;28;20775;-70
2021/05/05 06:38:35;;;;;;;1.73;1.63;;;6.80;99.90;;;;;;5063598;28;20461;-69
2021/05/05 06:41:01;;;;;;;2.30;1.73;;;6.80;99.90;;;;;;5054355;28;20461;-69
2021/05/05 06:43:28;;;;;;;4.23;2.70;;;6.80;99.90;;;;;;5052741;28;20453;-69
2021/05/05 06:45:55;;;;;;;3.90;3.50;;;6.80;99.90;;;;;;5062275;28;20970;-69
2021/05/05 06:48:22;;;;;;;2.97;2.60;;;6.80;99.90;;;;;;5058518;28;20582;-70
2021/05/05 06:50:49;;;;;;;5.43;3.40;;;6.80;99.90;;;;;;5056144;28;20862;-70
2021/05/05 06:53:16;;;;;;;3.87;2.10;;;6.90;99.90;;;;;;5048197;28;20426;-70
2021/05/05 06:55:43;;;;;;;2.87;2.67;;;7.20;99.90;;;;;;5051588;28;20489;-69
2021/05/05 06:58:10;;;;;;;3.70;2.50;;;7.20;99.90;;;;;;5046606;28;20449;-69
2021/05/05 07:00:36;;;;;;;8.33;3.00;;;7.30;99.90;;;;;;5050365;28;20454;-69
2021/05/05 07:03:03;;;;;;;7.07;2.67;;;7.30;99.90;;;;;;5049550;28;20461;-70
2021/05/05 07:05:31;;;;;;;15.13;3.00;;;7.40;99.90;;;;;;5049951;28;20472;-70
2021/05/05 07:07:58;;;;;;;4.97;2.17;;;7.60;99.90;;;;;;5053091;28;20475;-70
2021/05/05 07:10:25;;;;;;;6.03;3.30;;;7.60;99.90;;;;;;5060096;28;20508;-69
2021/05/05 07:12:52;;;;;;;4.50;3.47;;;7.50;99.90;;;;;;5049785;28;20483;-70
2021/05/05 07:15:18;;;;;;;3.10;2.83;;;7.50;99.90;;;;;;5035241;28;20442;-70
2021/05/05 07:17:45;;;;;;;2.70;2.33;;;7.80;99.90;;;;;;5057367;28;20433;-69
2021/05/05 07:20:13;;;;;;;2.97;2.67;;;8.00;99.90;;;;;;5062355;28;20505;-70
2021/05/05 07:22:40;;;;;;;6.83;2.50;;;8.40;99.90;;;;;;5060914;28;20508;-70
2021/05/05 07:25:07;;;;;;;1.60;1.50;;;8.40;99.90;;;;;;5051303;28;20478;-70
2021/05/05 07:27:34;;;;;;;3.97;2.90;;;8.50;99.90;;;;;;5057735;28;20461;-70
2021/05/05 07:30:01;;;;;;;3.07;2.63;;;8.60;99.90;;;;;;5049219;28;20535;-70
2021/05/05 07:32:28;;;;;;;2.60;2.27;;;8.70;99.90;;;;;;5059466;28;21130;-70
2021/05/05 07:34:55;;;;;;;5.50;2.73;;;8.40;99.90;;;;;;5053655;28;20460;-69
2021/05/05 07:37:31;;;;;;;12.30;3.03;;;8.20;99.90;;;;;;5052268;28;20451;-71
2021/05/05 07:45:57;;;;;;;7.13;2.40;;;7.70;99.90;;;;;;5065922;28;20543;-69
2021/05/05 07:48:27;;;;;;;2.80;2.00;;;7.50;99.90;;;;;;5065422;28;20775;-70
2021/05/05 07:50:55;;;;;;;2.00;1.60;;;7.40;99.90;;;;;;5064875;28;20518;-69
2021/05/05 07:53:22;;;;;;;2.43;1.77;;;7.20;99.90;;;;;;5061568;28;20974;-69
2021/05/05 07:55:51;;;;;;;1.90;1.80;;;7.30;99.90;;;;;;5057946;28;20430;-70
2021/05/05 07:58:18;;;;;;;3.67;2.97;;;7.30;99.90;;;;;;5055852;28;20462;-70
2021/05/05 08:00:44;;;;;;;2.50;2.30;;;7.50;99.90;;;;;;5054675;28;20496;-70
2021/05/05 08:03:11;;;;;;;5.60;3.23;;;7.50;99.90;;;;;;5057992;28;20936;-70
2021/05/05 08:05:38;;;;;;;3.87;2.57;;;7.60;99.90;;;;;;5055861;28;20462;-71
2021/05/05 08:08:04;;;;;;;7.67;2.87;;;7.90;99.90;;;;;;5049555;28;20534;-69
2021/05/05 08:10:31;;;;;;;3.00;2.70;;;8.10;99.90;;;;;;5057334;28;20473;-71
2021/05/05 08:12:59;;;;;;;5.17;3.77;;;7.90;99.90;;;;;;5059034;28;20462;-71
2021/05/05 08:15:27;;;;;;;3.73;2.53;;;8.00;99.90;;;;;;5055995;28;20460;-71
2021/05/05 08:17:54;;;;;;;4.00;2.30;;;8.10;99.90;;;;;;5054781;28;20634;-70
2021/05/05 08:20:20;;;;;;;3.47;2.47;;;8.20;99.90;;;;;;5058629;28;21091;-71
2021/05/05 08:22:47;;;;;;;2.20;1.97;;;8.20;99.90;;;;;;5053686;28;20453;-69
2021/05/05 08:25:14;;;;;;;5.30;2.27;;;8.20;99.90;;;;;;5055311;28;20545;-70
2021/05/05 08:27:41;;;;;;;3.37;2.77;;;8.30;99.90;;;;;;5047838;28;20426;-70
2021/05/05 08:30:10;;;;;;;3.27;2.37;;;8.60;99.90;;;;;;5053145;28;20563;-70
2021/05/05 08:32:37;;;;;;;9.40;3.97;;;8.70;99.90;;;;;;5057314;28;20445;-70
2021/05/05 08:35:04;;;;;;;6.50;2.60;;;8.80;99.90;;;;;;5057219;28;20455;-71
2021/05/05 08:37:31;;;;;;;2.43;1.53;;;9.00;99.90;;;;;;5054525;28;20479;-69
2021/05/05 08:39:57;;;;;;;5.07;2.87;;;9.10;99.90;;;;;;5052279;28;20487;-69
2021/05/05 08:42:24;;;;;;;3.77;2.03;;;9.20;99.90;;;;;;5060090;28;20483;-69
2021/05/05 08:44:52;;;;;;;2.73;2.13;;;9.40;99.90;;;;;;5050423;28;20479;-68
2021/05/05 08:47:20;;;;;;;15.43;2.97;;;9.50;99.90;;;;;;5050857;28;20455;-70
2021/05/05 08:49:47;;;;;;;3.47;2.90;;;9.60;99.90;;;;;;5057715;28;20463;-70
2021/05/05 08:52:14;;;;;;;3.30;3.00;;;9.90;99.90;;;;;;5054945;28;20434;-70
2021/05/05 08:54:41;;;;;;;2.23;2.13;;;10.50;99.90;;;;;;5053396;28;20487;-70
2021/05/05 08:57:08;;;;;;;3.50;2.63;;;11.20;99.90;;;;;;5051504;28;20782;-71
2021/05/05 08:59:34;;;;;;;4.97;3.80;;;10.70;99.90;;;;;;5052384;28;20425;-72
2021/05/05 09:02:01;;;;;;;3.10;2.10;;;10.30;99.90;;;;;;5056803;28;20621;-70
2021/05/05 09:04:29;;;;;;;5.70;2.57;;;10.40;99.90;;;;;;5054869;28;20918;-70
2021/05/05 09:06:57;;;;;;;8.70;2.40;;;10.30;99.90;;;;;;5054388;28;20441;-71
2021/05/05 09:09:38;;;;;;;2.53;2.30;;;9.90;99.90;;;;;;5055310;28;20425;-70
2021/05/05 09:12:19;;;;;;;2.20;2.00;;;9.90;99.90;;;;;;5062816;28;20440;-69
2021/05/05 09:14:54;;;;;;;3.50;3.17;;;9.90;99.90;;;;;;5063822;28;20454;-71
2021/05/05 09:17:22;;;;;;;2.80;2.07;;;9.90;99.90;;;;;;5060363;28;20505;-70
2021/05/05 09:19:50;;;;;;;2.40;1.63;;;10.60;99.90;;;;;;5057987;28;20459;-69
2021/05/05 09:22:40;;;;;;;4.80;3.90;;;10.50;99.90;;;;;;5053211;28;20450;-69
2021/05/05 09:25:10;;;;;;;4.50;3.47;;;10.40;99.90;;;;;;5053468;28;20496;-69
2021/05/05 09:27:37;;;;;;;4.27;3.73;;;10.10;99.90;;;;;;5058883;28;20477;-69
2021/05/05 09:30:06;;;;;;;3.23;2.93;;;9.70;99.90;;;;;;5063018;28;20502;-69
2021/05/05 09:32:48;;;;;;;3.50;3.00;;;10.20;99.90;;;;;;5054895;28;20535;-69
2021/05/05 09:35:17;;;;;;;3.23;2.83;;;10.30;99.90;;;;;;5060607;28;20425;-69
2021/05/05 09:37:54;;;;;;;4.63;2.03;;;10.20;99.90;;;;;;5053882;28;20433;-68
2021/05/05 09:40:22;;;;;;;8.93;3.47;;;10.00;99.90;;;;;;5058486;28;20493;-69
2021/05/05 09:42:49;;;;;;;4.47;2.93;;;10.10;99.90;;;;;;5061700;28;20479;-69
2021/05/05 09:45:16;;;;;;;2.93;2.57;;;10.40;99.90;;;;;;5057355;28;21039;-70
2021/05/05 09:47:48;;;;;;;9.23;2.30;;;10.70;99.90;;;;;;5058261;28;20437;-70
2021/05/05 09:50:33;;;;;;;1.77;1.27;;;10.80;99.90;;;;;;5052469;28;20510;-69
2021/05/05 09:53:22;;;;;;;5.87;2.60;;;10.60;99.90;;;;;;5055334;28;20433;-69
2021/05/05 09:56:10;;;;;;;2.00;1.90;;;11.50;99.90;;;;;;5054622;28;20556;-70
2021/05/05 09:58:39;;;;;;;4.23;2.00;;;11.40;99.90;;;;;;5054961;28;21563;-70
2021/05/05 10:01:22;;;;;;;1.73;1.53;;;10.80;99.90;;;;;;5058937;28;20849;-70
2021/05/05 10:03:52;;;;;;;2.50;1.30;;;10.40;99.90;;;;;;5053323;28;20570;-70
2021/05/05 10:06:28;;;;;;;2.13;1.63;;;10.90;99.90;;;;;;5059640;28;20467;-70
2021/05/05 10:08:57;;;;;;;1.50;1.40;;;11.50;99.90;;;;;;5063144;28;20478;-70
2021/05/05 10:11:25;;;;;;;3.10;1.20;;;13.00;99.90;;;;;;5054394;28;20591;-69
2021/05/05 10:13:54;;;;;;;5.83;2.43;;;14.00;99.90;;;;;;5055351;28;20465;-71
2021/05/05 10:16:22;;;;;;;1.37;1.10;;;13.90;99.90;;;;;;5053290;28;20975;-70
2021/05/05 10:18:50;;;;;;;3.20;1.67;;;12.90;99.90;;;;;;5057037;28;20482;-70
2021/05/05 10:21:20;;;;;;;3.77;1.60;;;12.20;99.90;;;;;;5052410;28;21088;-70
2021/05/05 10:23:48;;;;;;;2.23;1.50;;;11.50;99.90;;;;;;5056861;28;20520;-69
2021/05/05 10:26:15;;;;;;;2.97;1.63;;;11.50;99.90;;;;;;5053891;28;20438;-70
2021/05/05 10:28:42;;;;;;;2.53;2.10;;;11.70;99.90;;;;;;5052687;28;20746;-69
2021/05/05 10:31:16;;;;;;;1.60;1.40;;;12.20;99.90;;;;;;5053897;28;20923;-69
2021/05/05 10:33:45;;;;;;;2.03;1.80;;;12.30;99.90;;;;;;5058859;28;20801;-70
2021/05/05 10:36:49;;;;;;;3.13;1.13;;;12.50;99.90;;;;;;5062503;28;20545;-72
2021/05/05 10:39:37;;;;;;;1.50;1.20;;;12.90;99.90;;;;;;5055791;28;20595;-70
2021/05/05 10:42:11;;;;;;;3.53;3.13;;;12.90;99.90;;;;;;5056335;28;20505;-69
2021/05/05 10:44:39;;;;;;;2.03;1.50;;;11.80;99.90;;;;;;5066933;28;20473;-68
2021/05/05 10:47:26;;;;;;;2.40;1.57;;;11.20;99.90;;;;;;5064668;28;20550;-70
2021/05/05 10:50:17;;;;;;;3.43;2.37;;;10.60;99.90;;;;;;5057820;28;20478;-68
2021/05/05 10:53:08;;;;;;;5.93;1.50;;;10.50;99.90;;;;;;5059403;28;20949;-69
2021/05/05 10:55:55;;;;;;;5.23;3.60;;;12.20;99.90;;;;;;5061740;28;20881;-69
2021/05/05 10:58:24;;;;;;;1.57;1.17;;;13.40;99.90;;;;;;5062136;28;20461;-68
2021/05/05 11:00:54;;;;;;;2.80;1.30;;;13.40;99.90;;;;;;5060509;28;20529;-68
2021/05/05 11:03:59;;;;;;;1.93;1.60;;;12.30;99.90;;;;;;5056280;28;20421;-70
2021/05/05 11:06:48;;;;;;;1.23;1.03;;;11.70;99.90;;;;;;5056230;28;20483;-69
2021/05/05 11:09:43;;;;;;;2.50;1.33;;;13.30;99.90;;;;;;5058181;28;20459;-69
2021/05/05 11:12:39;;;;;;;1.97;1.50;;;14.60;99.90;;;;;;5061357;28;20530;-69
2021/05/05 11:15:08;;;;;;;1.70;1.23;;;15.10;99.90;;;;;;5031943;28;20807;-69
2021/05/05 11:17:34;;;;;;;1.70;1.30;;;15.10;99.90;;;;;;5058572;28;20807;-69
2021/05/05 11:20:01;;;;;;;1.60;1.40;;;14.90;99.90;;;;;;5059497;28;20857;-69
2021/05/05 11:22:48;;;;;;;4.47;2.93;;;13.50;99.90;;;;;;5040719;28;21009;-70
2021/05/05 11:25:25;;;;;;;4.63;3.37;;;12.40;99.90;;;;;;5059729;28;21040;-70
2021/05/05 11:27:57;;;;;;;2.00;1.43;;;11.60;99.90;;;;;;5053772;28;20454;-70
2021/05/05 11:30:38;;;;;;;5.93;2.03;;;11.00;99.90;;;;;;5060672;28;20478;-70
2021/05/05 11:33:05;;;;;;;1.77;1.53;;;11.30;99.90;;;;;;5064964;28;20466;-70
2021/05/05 11:35:32;;;;;;;2.27;1.27;;;11.50;99.90;;;;;;5054587;28;21009;-68
2021/05/05 11:38:12;;;;;;;5.70;1.63;;;11.50;99.90;;;;;;5055839;28;20458;-71
2021/05/05 11:40:39;;;;;;;2.17;1.20;;;11.30;99.90;;;;;;5061336;28;20524;-69
2021/05/05 11:43:21;;;;;;;2.23;1.77;;;10.90;99.90;;;;;;5056541;28;21039;-70
2021/05/05 11:45:49;;;;;;;1.93;1.20;;;10.60;99.90;;;;;;5058201;28;20472;-69
2021/05/05 11:48:37;;;;;;;1.27;1.00;;;11.20;99.90;;;;;;5057664;28;20581;-70
2021/05/05 11:51:20;;;;;;;1.23;1.13;;;11.50;99.90;;;;;;5063545;28;20858;-70
2021/05/05 11:53:47;;;;;;;3.30;1.13;;;11.20;99.90;;;;;;5060914;28;20454;-70
2021/05/05 11:56:21;;;;;;;4.40;1.40;;;11.10;99.90;;;;;;5059572;28;20505;-68
2021/05/05 11:58:57;;;;;;;1.10;0.80;;;11.60;99.90;;;;;;5058458;28;20961;-69
2021/05/05 12:01:31;;;;;;;1.97;0.90;;;12.00;99.90;;;;;;5057943;28;20457;-70
2021/05/05 12:04:18;;;;;;;1.70;0.97;;;12.50;99.90;;;;;;5056621;28;20541;-69
2021/05/05 12:06:53;;;;;;;2.50;1.57;;;12.90;99.90;;;;;;5061452;28;20493;-70
2021/05/05 12:09:25;;;;;;;2.10;1.27;;;12.10;99.90;;;;;;5055138;28;20836;-69
2021/05/05 12:12:16;;;;;;;1.17;0.93;;;11.50;99.90;;;;;;5057646;28;20448;-70
2021/05/05 12:14:46;;;;;;;1.63;1.10;;;11.10;99.90;;;;;;5068049;28;20433;-71
2021/05/05 12:17:24;;;;;;;1.93;1.17;;;11.40;99.90;;;;;;5063218;28;21009;-70
2021/05/05 12:19:55;;;;;;;1.70;1.20;;;11.50;99.90;;;;;;5056770;28;20429;-69
2021/05/05 12:22:22;;;;;;;1.83;1.10;;;11.50;99.90;;;;;;5065837;28;20958;-70
2021/05/05 12:25:08;;;;;;;4.90;1.37;;;12.00;99.90;;;;;;5060769;28;20479;-70
2021/05/05 12:27:35;;;;;;;1.53;1.43;;;12.30;99.90;;;;;;5062866;28;20817;-71
2021/05/05 12:30:06;;;;;;;4.80;1.53;;;12.90;99.90;;;;;;5058201;28;20617;-70
2021/05/05 12:32:43;;;;;;;1.90;1.10;;;13.10;99.90;;;;;;5056773;28;21036;-69
2021/05/05 12:35:11;;;;;;;2.57;1.27;;;13.10;99.90;;;;;;5060607;28;20513;-69
2021/05/05 12:37:38;;;;;;;3.00;1.57;;;13.80;99.90;;;;;;5061069;28;20440;-69
2021/05/05 12:40:07;;;;;;;2.57;1.40;;;14.30;99.90;;;;;;5058070;28;20492;-69
2021/05/05 12:42:34;;;;;;;3.00;2.13;;;14.40;99.90;;;;;;5062883;28;20896;-70
2021/05/05 12:45:07;;;;;;;3.60;1.70;;;14.50;99.90;;;;;;5061953;28;20540;-69
2021/05/05 12:47:34;;;;;;;1.93;1.27;;;15.20;99.90;;;;;;5063767;28;20459;-70
2021/05/05 12:50:01;;;;;;;1.50;1.20;;;15.80;99.90;;;;;;5061942;28;20482;-70
2021/05/05 12:52:30;;;;;;;1.80;0.97;;;16.10;99.90;;;;;;5058439;28;20457;-69
2021/05/05 12:54:58;;;;;;;1.47;1.37;;;15.30;99.90;;;;;;5057512;28;20806;-69
2021/05/05 12:57:26;;;;;;;2.33;1.30;;;14.60;99.90;;;;;;5055525;28;20462;-70
2021/05/05 12:59:54;;;;;;;1.73;1.37;;;14.20;99.90;;;;;;5056973;28;21038;-70
2021/05/05 13:02:24;;;;;;;3.63;1.23;;;13.90;99.90;;;;;;5054645;28;20542;-70
2021/05/05 13:04:52;;;;;;;1.57;1.20;;;12.90;99.90;;;;;;5055592;28;21006;-70
2021/05/05 13:07:27;;;;;;;1.40;1.20;;;12.20;99.90;;;;;;5058675;28;20434;-69
2021/05/05 13:10:10;;;;;;;1.20;1.00;;;11.60;99.90;;;;;;5059831;28;20485;-71
2021/05/05 13:12:41;;;;;;;1.40;1.00;;;11.30;99.90;;;;;;5057050;28;20486;-69
2021/05/05 13:15:33;;;;;;;3.80;1.33;;;11.30;99.90;;;;;;5058869;28;20452;-70